Time;durP1;ratioP1;P1;durP2;ratioP2;P2;SDS_P1;SDS_P2;PMS_P1;PMS_P2;Temp;Humidity;BMP_temperature;BMP_pressure;BME280_temperature;BME280_humidity;BME280_pressure;Samples;Min_cycle;Max_cycle;Signal;HPM_P1;HPM_P2
2022/07/04 00:00:18;;;;;;;0.65;0.57;;;18.30;75.60;;;;;;5034835;28;20029;-84
2022/07/04 00:02:45;;;;;;;2.08;0.57;;;18.30;75.90;;;;;;5037332;28;20498;-85
2022/07/04 00:05:11;;;;;;;0.63;0.63;;;18.20;76.60;;;;;;5054214;28;20020;-84
2022/07/04 00:07:42;;;;;;;0.70;0.70;;;18.20;76.40;;;;;;5034055;28;20115;-86
2022/07/04 00:10:09;;;;;;;0.70;0.70;;;18.10;76.60;;;;;;5017226;28;20104;-85
2022/07/04 00:12:35;;;;;;;0.50;0.50;;;18.10;76.90;;;;;;5036911;28;20514;-83
2022/07/04 00:15:03;;;;;;;0.55;0.55;;;18.10;76.80;;;;;;5036044;28;20033;-83
2022/07/04 00:17:29;;;;;;;1.42;0.90;;;18.00;76.80;;;;;;5053508;28;20040;-84
2022/07/04 00:19:55;;;;;;;0.70;0.70;;;18.00;76.30;;;;;;5036759;28;20039;-84
2022/07/04 00:22:21;;;;;;;0.82;0.70;;;18.00;76.50;;;;;;5036614;28;20036;-84
2022/07/04 00:24:47;;;;;;;2.05;0.70;;;17.90;76.70;;;;;;5034554;28;20128;-85
2022/07/04 00:27:13;;;;;;;0.73;0.70;;;17.80;77.10;;;;;;5035979;28;20033;-83
2022/07/04 00:29:39;;;;;;;1.52;0.70;;;17.80;77.90;;;;;;5035141;28;20037;-83
2022/07/04 00:32:05;;;;;;;1.35;0.80;;;17.80;78.80;;;;;;5022256;28;20119;-83
2022/07/04 00:34:31;;;;;;;0.80;0.80;;;17.70;79.00;;;;;;5037238;28;20035;-85
2022/07/04 00:36:57;;;;;;;0.60;0.60;;;17.70;79.30;;;;;;5036510;28;20036;-83
2022/07/04 00:39:22;;;;;;;0.75;0.68;;;17.60;79.80;;;;;;5036240;28;20021;-83
2022/07/04 00:41:48;;;;;;;0.52;0.50;;;17.60;79.50;;;;;;5033136;28;20033;-84
2022/07/04 00:44:17;;;;;;;0.60;0.60;;;17.60;79.90;;;;;;5053556;28;20552;-83
2022/07/04 00:46:45;;;;;;;0.65;0.65;;;17.50;80.00;;;;;;5037012;28;20069;-83
2022/07/04 00:49:12;;;;;;;2.95;0.90;;;17.50;79.90;;;;;;5036194;28;20025;-84
2022/07/04 00:51:38;;;;;;;0.73;0.73;;;17.50;80.70;;;;;;5048695;28;20067;-84
2022/07/04 00:54:09;;;;;;;0.88;0.80;;;17.60;80.40;;;;;;5048562;28;20456;-86
2022/07/04 00:56:37;;;;;;;1.13;0.88;;;17.50;80.00;;;;;;5040429;28;20021;-84
2022/07/04 00:59:03;;;;;;;1.08;0.90;;;17.50;80.30;;;;;;5032940;28;20037;-84
2022/07/04 01:01:28;;;;;;;0.80;0.80;;;17.50;80.40;;;;;;5052132;28;20089;-84
2022/07/04 01:03:55;;;;;;;0.60;0.60;;;17.40;82.00;;;;;;5033935;28;20036;-84
2022/07/04 01:06:21;;;;;;;1.25;0.80;;;17.40;81.60;;;;;;5051003;28;20028;-85
2022/07/04 01:08:47;;;;;;;2.28;0.80;;;17.40;82.00;;;;;;5035133;28;20055;-84
2022/07/04 01:11:16;;;;;;;1.00;0.80;;;17.30;81.90;;;;;;5052726;28;20025;-84
2022/07/04 01:13:43;;;;;;;0.90;0.90;;;17.30;81.60;;;;;;5033956;28;20044;-85
2022/07/04 01:16:10;;;;;;;4.97;1.23;;;17.30;82.00;;;;;;5020951;28;20091;-84
2022/07/04 01:18:37;;;;;;;0.80;0.80;;;17.30;81.70;;;;;;5048662;28;20132;-85
2022/07/04 01:21:03;;;;;;;1.10;0.70;;;17.30;82.20;;;;;;5043726;28;20028;-83
2022/07/04 01:23:29;;;;;;;1.40;0.70;;;17.30;82.40;;;;;;5052619;28;20104;-84
2022/07/04 01:25:56;;;;;;;1.13;0.77;;;17.40;82.30;;;;;;5036268;28;20033;-83
2022/07/04 01:28:23;;;;;;;1.17;0.80;;;17.40;81.40;;;;;;5053081;28;20393;-83
2022/07/04 01:30:49;;;;;;;0.60;0.60;;;17.40;81.90;;;;;;5016064;28;20044;-85
2022/07/04 01:33:17;;;;;;;0.88;0.82;;;17.50;83.70;;;;;;5018290;28;20420;-84
2022/07/04 01:35:47;;;;;;;1.25;0.70;;;17.30;83.50;;;;;;5037722;28;20071;-84
2022/07/04 01:38:13;;;;;;;0.70;0.70;;;17.30;83.70;;;;;;5052996;28;20120;-86
2022/07/04 01:40:39;;;;;;;0.73;0.73;;;17.40;83.50;;;;;;5070212;28;20103;-84
2022/07/04 01:43:05;;;;;;;0.65;0.60;;;17.30;83.80;;;;;;5036022;28;20059;-83
2022/07/04 01:45:34;;;;;;;1.05;0.93;;;17.40;83.40;;;;;;5036293;28;20491;-84
2022/07/04 01:48:00;;;;;;;0.60;0.60;;;17.40;83.30;;;;;;5020535;28;20650;-85
2022/07/04 01:50:26;;;;;;;0.75;0.75;;;17.40;83.30;;;;;;5035875;28;20037;-84
2022/07/04 01:52:52;;;;;;;0.60;0.60;;;17.40;83.10;;;;;;5052334;28;20043;-83
2022/07/04 01:55:18;;;;;;;0.93;0.88;;;17.40;83.80;;;;;;5035980;28;20120;-84
2022/07/04 01:57:44;;;;;;;0.77;0.77;;;17.50;82.60;;;;;;5035925;28;20495;-84
2022/07/04 02:02:55;;;;;;;;;;;17.50;82.60;;;;;;5020545;28;20128;-83
2022/07/04 02:05:22;;;;;;;;;;;17.50;82.40;;;;;;5018752;28;19948;-83
2022/07/04 02:07:48;;;;;;;;;;;17.50;82.70;;;;;;5052529;28;19958;-84
2022/07/04 02:10:14;;;;;;;1.65;0.90;;;17.50;82.50;;;;;;5051684;28;19908;-84
2022/07/04 02:15:24;;;;;;;0.98;0.70;;;17.50;82.50;;;;;;5052425;28;20033;-83
2022/07/04 02:17:50;;;;;;;0.80;0.80;;;17.50;82.40;;;;;;5052266;28;20025;-84
2022/07/04 02:20:16;;;;;;;0.65;0.65;;;17.50;82.10;;;;;;5033086;28;20028;-83
2022/07/04 02:22:42;;;;;;;0.80;0.80;;;17.50;82.40;;;;;;5034600;28;20033;-83
2022/07/04 02:25:08;;;;;;;1.23;0.80;;;17.50;82.40;;;;;;5057710;28;20465;-84
2022/07/04 02:27:34;;;;;;;1.05;0.90;;;17.50;82.20;;;;;;5039188;28;20028;-84
2022/07/04 02:30:00;;;;;;;0.93;0.80;;;17.50;82.20;;;;;;5003824;28;20126;-84
2022/07/04 02:32:25;;;;;;;0.80;0.80;;;17.50;82.40;;;;;;5054399;28;20523;-84
2022/07/04 02:34:51;;;;;;;0.82;0.82;;;17.40;83.00;;;;;;5066306;28;20499;-84
2022/07/04 02:37:17;;;;;;;1.50;0.93;;;17.40;83.60;;;;;;5060633;28;20490;-84
2022/07/04 02:39:43;;;;;;;0.80;0.80;;;17.40;83.80;;;;;;5035984;28;20033;-84
2022/07/04 02:42:09;;;;;;;0.90;0.90;;;17.30;84.30;;;;;;5037762;28;20406;-84
2022/07/04 02:44:35;;;;;;;0.82;0.82;;;17.30;84.00;;;;;;5039391;28;20044;-83
2022/07/04 02:47:00;;;;;;;1.00;1.00;;;17.30;83.80;;;;;;5050498;28;20036;-83
2022/07/04 02:49:27;;;;;;;1.02;0.98;;;17.40;84.30;;;;;;5038474;28;20075;-84
2022/07/04 02:51:53;;;;;;;0.85;0.85;;;17.40;84.30;;;;;;5038364;28;20553;-84
2022/07/04 02:54:19;;;;;;;1.08;0.98;;;17.30;84.30;;;;;;5039028;28;20033;-84
2022/07/04 02:56:44;;;;;;;0.80;0.80;;;17.30;84.40;;;;;;5053070;28;20480;-85
2022/07/04 02:59:10;;;;;;;0.80;0.80;;;17.30;85.50;;;;;;5055010;28;20127;-84
2022/07/04 03:01:36;;;;;;;0.80;0.80;;;17.30;85.30;;;;;;5038726;28;20071;-83
2022/07/04 03:04:03;;;;;;;0.77;0.75;;;17.30;85.70;;;;;;5035319;28;20036;-83
2022/07/04 03:06:30;;;;;;;1.20;0.80;;;17.20;86.00;;;;;;5046691;28;20032;-84
2022/07/04 03:08:56;;;;;;;1.02;0.90;;;17.20;85.90;;;;;;5054215;28;20131;-83
2022/07/04 03:11:22;;;;;;;1.08;0.82;;;17.20;86.00;;;;;;5052008;28;20029;-83
2022/07/04 03:13:48;;;;;;;0.90;0.90;;;17.20;86.10;;;;;;5035707;28;20033;-84
2022/07/04 03:16:13;;;;;;;0.85;0.85;;;17.20;86.00;;;;;;5036812;28;20029;-84
2022/07/04 03:18:43;;;;;;;0.88;0.88;;;17.20;85.90;;;;;;5037911;28;20036;-83
2022/07/04 03:21:09;;;;;;;1.05;1.00;;;17.20;85.70;;;;;;5036836;28;20040;-84
2022/07/04 03:23:35;;;;;;;1.10;1.00;;;17.20;85.70;;;;;;5038411;28;20403;-85
2022/07/04 03:26:01;;;;;;;1.35;1.20;;;17.20;85.20;;;;;;5030438;28;20044;-85
2022/07/04 03:28:27;;;;;;;1.63;1.13;;;17.20;85.30;;;;;;5047633;28;20613;-84
2022/07/04 03:30:53;;;;;;;1.30;1.20;;;17.20;85.40;;;;;;5048277;28;20044;-85
2022/07/04 03:33:19;;;;;;;1.42;1.05;;;17.20;85.30;;;;;;5021192;28;20036;-85
2022/07/04 03:35:45;;;;;;;2.15;1.35;;;17.20;85.10;;;;;;5037674;28;20028;-86
2022/07/04 03:38:12;;;;;;;1.70;1.25;;;17.20;85.30;;;;;;5020799;28;20048;-86
2022/07/04 03:40:38;;;;;;;2.22;1.10;;;17.20;85.30;;;;;;5037260;28;20032;-84
2022/07/04 03:43:06;;;;;;;1.55;1.30;;;17.20;85.30;;;;;;5037946;28;20036;-85
2022/07/04 03:45:32;;;;;;;2.80;1.13;;;17.20;85.30;;;;;;5021253;28;20082;-84
2022/07/04 03:47:58;;;;;;;3.25;1.00;;;17.30;85.80;;;;;;5037735;28;20037;-85
2022/07/04 03:50:24;;;;;;;0.88;0.88;;;17.30;86.30;;;;;;5037445;28;20043;-85
2022/07/04 03:52:50;;;;;;;1.50;1.40;;;17.30;86.20;;;;;;5037193;28;20033;-85
2022/07/04 03:55:16;;;;;;;1.05;1.02;;;17.40;86.30;;;;;;5071811;28;20075;-85
2022/07/04 03:57:42;;;;;;;1.40;1.30;;;17.40;86.40;;;;;;5036102;28;20403;-85
2022/07/04 04:00:11;;;;;;;1.73;1.15;;;17.40;86.40;;;;;;5036158;28;20021;-86
2022/07/04 04:02:40;;;;;;;2.08;1.30;;;17.40;86.10;;;;;;5058493;28;20028;-85
2022/07/04 04:07:52;;;;;;;1.30;1.20;;;17.50;86.30;;;;;;5038884;28;20047;-86
2022/07/04 04:10:18;;;;;;;1.20;1.10;;;17.50;86.60;;;;;;5056620;28;20125;-87
2022/07/04 04:12:44;;;;;;;3.08;1.20;;;17.50;87.00;;;;;;5022807;28;20041;-87
2022/07/04 04:15:10;;;;;;;0.93;0.93;;;17.50;87.40;;;;;;5056309;28;20161;-86
2022/07/04 04:17:36;;;;;;;1.92;1.30;;;17.50;88.50;;;;;;5047427;28;20091;-86
2022/07/04 04:20:02;;;;;;;1.30;1.20;;;17.60;88.30;;;;;;5019660;28;20029;-87
2022/07/04 04:22:28;;;;;;;1.30;1.23;;;17.60;88.10;;;;;;5038498;28;20025;-85
2022/07/04 04:24:54;;;;;;;1.30;1.20;;;17.70;87.90;;;;;;5052576;28;20032;-85
2022/07/04 04:27:20;;;;;;;1.40;1.30;;;17.70;88.10;;;;;;5037532;28;20037;-86
2022/07/04 04:29:46;;;;;;;2.30;1.58;;;17.70;87.90;;;;;;5060727;28;20032;-86
2022/07/04 04:32:12;;;;;;;3.67;1.50;;;17.70;88.30;;;;;;5038908;28;20040;-85
2022/07/04 04:34:41;;;;;;;1.70;1.60;;;17.70;87.90;;;;;;5023001;28;20044;-86
2022/07/04 04:37:06;;;;;;;1.73;1.63;;;17.70;88.50;;;;;;5039815;28;20201;-86
2022/07/04 04:39:32;;;;;;;2.30;2.00;;;17.70;88.50;;;;;;5038953;28;20089;-86
2022/07/04 04:41:58;;;;;;;2.00;1.80;;;17.80;88.40;;;;;;5064582;28;20028;-85
2022/07/04 04:44:24;;;;;;;2.42;1.50;;;17.90;88.60;;;;;;5023093;28;20037;-84
2022/07/04 04:46:49;;;;;;;3.05;1.70;;;18.00;88.80;;;;;;5038734;28;20033;-87
2022/07/04 04:49:16;;;;;;;2.10;1.90;;;18.10;88.80;;;;;;5060156;28;20068;-85
2022/07/04 04:51:42;;;;;;;2.10;2.00;;;18.10;88.30;;;;;;5020586;28;20078;-84
2022/07/04 04:54:08;;;;;;;2.15;1.95;;;18.10;88.00;;;;;;5037966;28;20032;-86
2022/07/04 04:56:34;;;;;;;2.13;1.92;;;18.10;89.10;;;;;;5041968;28;20103;-85
2022/07/04 04:59:00;;;;;;;2.20;2.00;;;18.10;89.10;;;;;;5062042;28;20085;-85
2022/07/04 05:01:26;;;;;;;2.10;2.00;;;18.00;89.40;;;;;;5053150;28;20052;-86
2022/07/04 05:03:52;;;;;;;2.35;1.80;;;18.00;89.80;;;;;;5036865;28;20123;-84
2022/07/04 05:06:18;;;;;;;2.08;1.88;;;18.00;89.40;;;;;;5042793;28;20456;-85
2022/07/04 05:08:44;;;;;;;1.90;1.80;;;18.00;89.80;;;;;;5037097;28;20481;-85
2022/07/04 05:11:10;;;;;;;1.95;1.85;;;18.10;89.60;;;;;;5036958;28;20407;-85
2022/07/04 05:13:36;;;;;;;3.53;1.77;;;18.30;89.90;;;;;;5024129;28;20037;-84
2022/07/04 05:16:02;;;;;;;2.30;2.10;;;18.40;89.50;;;;;;5052796;28;20028;-84
2022/07/04 05:18:27;;;;;;;3.45;2.10;;;18.50;88.80;;;;;;5036097;28;20540;-85
2022/07/04 05:20:53;;;;;;;2.30;2.13;;;18.70;88.60;;;;;;5049811;28;20102;-86
2022/07/04 05:23:19;;;;;;;1.73;1.63;;;18.80;88.10;;;;;;5019807;28;20041;-86
2022/07/04 05:25:45;;;;;;;3.25;2.10;;;18.80;87.70;;;;;;5053086;28;20037;-86
2022/07/04 05:28:10;;;;;;;2.30;1.90;;;18.90;88.00;;;;;;5052829;28;20119;-85
2022/07/04 05:30:36;;;;;;;2.85;1.83;;;19.00;87.90;;;;;;5032635;28;20560;-85
2022/07/04 05:33:02;;;;;;;1.95;1.80;;;19.10;87.40;;;;;;5032566;28;22011;-88
2022/07/04 05:35:29;;;;;;;3.13;2.15;;;19.10;87.00;;;;;;5035425;28;20059;-85
2022/07/04 05:37:55;;;;;;;3.85;1.98;;;19.20;86.90;;;;;;5035952;28;20127;-87
2022/07/04 05:40:23;;;;;;;2.75;2.08;;;19.40;87.00;;;;;;5035690;28;20071;-85
2022/07/04 05:42:49;;;;;;;2.08;1.98;;;19.60;86.60;;;;;;5019425;28;20065;-85
2022/07/04 05:45:15;;;;;;;2.22;1.75;;;19.90;86.00;;;;;;5036175;28;20032;-84
2022/07/04 05:47:41;;;;;;;2.50;2.05;;;20.10;85.50;;;;;;5033920;28;20033;-85
2022/07/04 05:50:07;;;;;;;2.30;2.10;;;20.30;84.30;;;;;;5033206;28;20509;-86
2022/07/04 05:52:33;;;;;;;2.13;1.88;;;20.40;84.00;;;;;;5052173;28;20048;-85
2022/07/04 05:54:59;;;;;;;1.90;1.80;;;20.60;84.30;;;;;;5062264;28;20041;-84
2022/07/04 05:57:25;;;;;;;2.13;1.80;;;21.00;83.50;;;;;;5031969;28;20033;-84
2022/07/04 05:59:51;;;;;;;1.77;1.60;;;21.40;81.90;;;;;;5035364;28;20029;-85
2022/07/04 06:02:16;;;;;;;2.80;1.73;;;21.70;81.40;;;;;;5032586;28;20033;-86
2022/07/04 06:04:45;;;;;;;2.40;1.80;;;22.10;79.40;;;;;;5036417;28;20033;-88
2022/07/04 06:07:11;;;;;;;2.08;1.85;;;22.40;79.10;;;;;;5039679;28;20222;-88
2022/07/04 06:09:37;;;;;;;1.65;1.55;;;22.80;77.10;;;;;;5022716;28;20072;-86
2022/07/04 06:12:04;;;;;;;1.88;1.70;;;23.10;76.90;;;;;;5042258;28;20032;-86
2022/07/04 06:14:31;;;;;;;2.13;1.77;;;23.50;75.90;;;;;;5030510;28;20049;-87
2022/07/04 06:16:57;;;;;;;1.60;1.50;;;23.80;74.50;;;;;;5055764;28;20047;-86
2022/07/04 06:19:22;;;;;;;1.80;1.70;;;24.20;73.40;;;;;;5039229;28;20124;-87
2022/07/04 06:21:48;;;;;;;2.00;1.80;;;24.60;71.70;;;;;;5063001;28;20120;-86
2022/07/04 06:24:14;;;;;;;3.38;1.70;;;24.90;69.00;;;;;;5039738;28;20071;-88
2022/07/04 06:26:40;;;;;;;1.58;1.48;;;25.10;68.70;;;;;;5016789;28;20033;-87
2022/07/04 06:29:06;;;;;;;2.10;1.30;;;25.50;68.00;;;;;;5037214;28;20037;-87
2022/07/04 06:31:32;;;;;;;1.90;1.80;;;25.80;68.00;;;;;;5022388;28;20025;-84
2022/07/04 06:36:45;;;;;;;1.85;1.60;;;26.20;64.20;;;;;;5031726;28;20073;-85
2022/07/04 06:39:10;;;;;;;2.65;1.60;;;26.40;64.00;;;;;;5052006;28;20029;-87
2022/07/04 06:41:37;;;;;;;1.40;1.30;;;26.70;64.80;;;;;;5039147;28;20055;-86
2022/07/04 06:44:03;;;;;;;2.38;2.03;;;26.70;63.30;;;;;;5071975;28;20037;-86
2022/07/04 06:46:29;;;;;;;1.70;1.60;;;26.70;63.60;;;;;;5022642;28;20067;-87
2022/07/04 06:48:55;;;;;;;2.33;1.80;;;26.80;63.70;;;;;;5032898;28;20123;-85
2022/07/04 06:51:22;;;;;;;1.60;1.50;;;26.70;62.70;;;;;;5028369;28;20059;-87
2022/07/04 06:53:48;;;;;;;3.03;1.50;;;26.80;62.60;;;;;;5039025;28;20037;-85
2022/07/04 06:56:13;;;;;;;2.10;1.77;;;26.80;62.80;;;;;;5045234;28;20039;-85
2022/07/04 06:58:39;;;;;;;3.22;1.90;;;26.90;62.40;;;;;;5034386;28;20484;-88
2022/07/04 07:01:05;;;;;;;1.67;1.55;;;27.00;61.10;;;;;;5043413;28;20032;-86
2022/07/04 07:03:31;;;;;;;6.72;1.48;;;27.20;61.20;;;;;;5037990;28;20413;-85
2022/07/04 07:05:57;;;;;;;2.65;1.63;;;27.50;60.60;;;;;;5055596;28;20036;-85
2022/07/04 07:08:23;;;;;;;2.00;1.90;;;27.70;59.50;;;;;;5027982;28;20040;-86
2022/07/04 07:10:49;;;;;;;2.50;1.73;;;27.80;60.50;;;;;;5069085;28;20406;-86
2022/07/04 07:13:15;;;;;;;1.55;1.33;;;27.80;60.10;;;;;;5036122;28;20037;-87
2022/07/04 07:15:41;;;;;;;2.45;1.70;;;28.10;58.70;;;;;;5037643;28;20988;-85
2022/07/04 07:18:07;;;;;;;2.95;2.20;;;28.20;58.10;;;;;;5035705;28;20033;-87
2022/07/04 07:20:33;;;;;;;1.92;1.77;;;28.40;57.60;;;;;;5057628;28;20029;-87
2022/07/04 07:23:02;;;;;;;33.42;12.95;;;28.50;57.00;;;;;;5061269;28;20032;-89
2022/07/04 07:25:28;;;;;;;3.33;1.80;;;28.40;57.70;;;;;;5038714;28;20071;-88
2022/07/04 07:27:54;;;;;;;3.28;2.30;;;28.40;58.20;;;;;;5052331;28;20157;-88
2022/07/04 07:30:20;;;;;;;2.15;1.95;;;28.20;56.80;;;;;;4998279;28;20036;-86
2022/07/04 07:32:46;;;;;;;1.65;1.55;;;27.80;58.60;;;;;;5018732;28;20081;-86
2022/07/04 07:35:12;;;;;;;2.83;2.20;;;27.20;58.80;;;;;;5066374;28;20029;-88
2022/07/04 07:37:37;;;;;;;1.50;1.40;;;26.90;60.50;;;;;;5048191;28;20629;-89
2022/07/04 07:40:04;;;;;;;4.40;1.58;;;26.80;61.00;;;;;;5034687;28;20033;-88
2022/07/04 07:42:30;;;;;;;2.08;1.50;;;26.90;60.90;;;;;;5063263;28;20029;-87
2022/07/04 07:44:56;;;;;;;1.33;1.20;;;27.20;61.20;;;;;;5048677;28;20033;-86
2022/07/04 07:47:22;;;;;;;4.70;1.50;;;27.60;59.70;;;;;;5057177;28;20059;-85
2022/07/04 07:49:48;;;;;;;1.27;1.23;;;28.20;59.00;;;;;;5040308;28;20495;-85
2022/07/04 07:52:15;;;;;;;1.60;1.50;;;28.40;56.90;;;;;;5035414;28;20033;-85
2022/07/04 07:54:41;;;;;;;3.17;1.83;;;28.40;58.00;;;;;;5036893;28;20032;-86
2022/07/04 07:57:07;;;;;;;2.55;1.20;;;28.30;58.40;;;;;;5049313;28;20086;-84
2022/07/04 07:59:33;;;;;;;1.98;1.27;;;28.40;58.40;;;;;;5068833;28;20094;-86
2022/07/04 08:01:58;;;;;;;3.42;1.48;;;28.30;58.10;;;;;;5032109;28;20039;-85
2022/07/04 08:04:41;;;;;;;1.45;1.10;;;28.20;56.90;;;;;;5010567;28;20032;-87
2022/07/04 08:07:14;;;;;;;2.83;1.40;;;28.00;57.70;;;;;;5037124;28;20490;-87
2022/07/04 08:09:40;;;;;;;2.28;1.15;;;27.70;58.70;;;;;;5065870;28;20033;-86
2022/07/04 08:12:07;;;;;;;1.30;1.20;;;27.50;59.50;;;;;;5034348;28;20036;-87
2022/07/04 08:14:34;;;;;;;2.30;1.27;;;27.50;59.70;;;;;;5029088;28;20041;-87
2022/07/04 08:17:00;;;;;;;1.38;1.27;;;27.50;60.70;;;;;;5023519;28;20033;-86
2022/07/04 08:19:26;;;;;;;1.73;1.40;;;27.50;61.50;;;;;;5063914;28;20082;-87
2022/07/04 08:21:53;;;;;;;1.25;1.15;;;27.40;60.70;;;;;;5036042;28;20040;-86
2022/07/04 08:24:19;;;;;;;1.48;1.38;;;27.20;58.40;;;;;;5050921;28;20424;-86
2022/07/04 08:26:45;;;;;;;1.63;1.30;;;26.90;59.30;;;;;;5039981;28;20070;-88
2022/07/04 08:29:11;;;;;;;1.38;1.25;;;26.60;62.40;;;;;;5030260;28;20017;-87
2022/07/04 08:31:37;;;;;;;1.40;1.30;;;26.20;62.30;;;;;;5013273;28;20514;-88
2022/07/04 08:34:02;;;;;;;1.30;1.20;;;25.80;63.90;;;;;;5045434;28;20383;-86
2022/07/04 08:36:28;;;;;;;1.48;1.38;;;25.70;65.40;;;;;;5031850;28;20016;-86
2022/07/04 08:38:54;;;;;;;1.50;1.40;;;25.60;67.00;;;;;;5047404;28;20089;-87
2022/07/04 08:41:20;;;;;;;1.40;1.30;;;25.70;67.10;;;;;;5011863;28;20078;-86
2022/07/04 08:43:47;;;;;;;2.33;1.20;;;25.80;64.60;;;;;;5050272;28;20119;-87
2022/07/04 08:46:16;;;;;;;3.03;2.08;;;25.90;65.50;;;;;;5055796;28;20028;-87
2022/07/04 08:48:47;;;;;;;1.55;1.20;;;26.10;68.20;;;;;;5038744;28;20045;-86
2022/07/04 08:51:16;;;;;;;1.70;1.30;;;26.10;65.40;;;;;;5021410;28;20033;-86
2022/07/04 08:53:54;;;;;;;3.45;1.27;;;26.10;66.10;;;;;;5034026;28;20029;-87
2022/07/04 08:59:06;;;;;;;9.40;1.50;;;25.90;67.40;;;;;;5052049;28;20071;-86
2022/07/04 09:01:32;;;;;;;2.05;1.30;;;25.90;66.60;;;;;;5066812;28;20060;-89
2022/07/04 09:03:59;;;;;;;3.00;1.40;;;26.00;65.40;;;;;;5049778;28;20044;-86
2022/07/04 09:06:26;;;;;;;1.52;1.20;;;26.10;62.90;;;;;;5034548;28;20029;-87
2022/07/04 09:08:53;;;;;;;2.72;1.67;;;26.10;64.20;;;;;;5050553;28;20033;-86
2022/07/04 09:11:19;;;;;;;1.50;1.40;;;26.10;66.30;;;;;;5034097;28;20549;-87
2022/07/04 09:13:44;;;;;;;1.92;1.38;;;26.30;67.00;;;;;;5034067;28;20033;-88
2022/07/04 09:16:10;;;;;;;2.00;1.23;;;26.50;66.50;;;;;;5034516;28;20082;-87
2022/07/04 09:18:37;;;;;;;1.67;1.58;;;26.60;64.10;;;;;;5017266;28;20029;-87
2022/07/04 09:21:08;;;;;;;1.60;1.50;;;26.60;61.40;;;;;;5051067;28;20020;-88
2022/07/04 09:23:38;;;;;;;3.42;1.52;;;26.30;63.00;;;;;;5050639;28;20040;-85
2022/07/04 09:26:16;;;;;;;1.63;1.33;;;26.30;64.00;;;;;;5050698;28;20398;-86
2022/07/04 09:28:54;;;;;;;1.50;1.40;;;26.20;65.80;;;;;;5014203;28;20135;-86
2022/07/04 09:31:23;;;;;;;1.60;1.50;;;26.20;64.10;;;;;;5039972;28;20091;-87
2022/07/04 09:33:54;;;;;;;3.63;1.52;;;26.20;62.20;;;;;;5029815;28;20037;-86
2022/07/04 09:36:35;;;;;;;1.50;1.40;;;26.20;61.80;;;;;;5064012;28;20063;-88
2022/07/04 09:39:20;;;;;;;2.30;1.35;;;26.10;61.20;;;;;;5052463;28;20111;-85
2022/07/04 09:42:00;;;;;;;1.87;1.63;;;26.10;62.60;;;;;;5050313;28;20017;-85
2022/07/04 09:44:42;;;;;;;3.33;1.73;;;26.10;62.00;;;;;;5033486;28;20079;-86
2022/07/04 09:47:27;;;;;;;8.18;1.70;;;26.10;62.50;;;;;;5019519;28;20668;-86
2022/07/04 09:50:09;;;;;;;1.70;1.53;;;26.00;63.50;;;;;;5000978;28;20029;-88
2022/07/04 09:52:56;;;;;;;3.42;1.58;;;26.00;62.50;;;;;;5037273;28;20286;-88
2022/07/04 09:55:26;;;;;;;1.55;1.33;;;26.10;61.80;;;;;;5052143;28;20025;-86
2022/07/04 09:57:54;;;;;;;1.92;1.33;;;26.10;61.60;;;;;;5037133;28;20108;-88
2022/07/04 10:00:22;;;;;;;1.48;1.38;;;26.10;62.30;;;;;;5052460;28;20558;-87
2022/07/04 10:02:49;;;;;;;2.15;1.33;;;26.20;66.50;;;;;;5020324;28;20036;-87
2022/07/04 10:05:24;;;;;;;1.38;1.35;;;26.20;62.50;;;;;;5053987;28;20040;-85
2022/07/04 10:07:50;;;;;;;1.85;1.50;;;26.40;62.20;;;;;;5037617;28;20032;-87
2022/07/04 10:10:35;;;;;;;1.60;1.50;;;26.40;62.30;;;;;;5036163;28;20035;-88
2022/07/04 10:13:04;;;;;;;1.63;1.52;;;26.60;62.20;;;;;;5053544;28;20113;-87
2022/07/04 10:15:31;;;;;;;1.70;1.60;;;26.70;62.90;;;;;;5024808;28;20041;-85
2022/07/04 10:17:57;;;;;;;1.60;1.50;;;26.60;60.60;;;;;;5037758;28;20028;-86
2022/07/04 10:20:24;;;;;;;3.33;1.70;;;26.60;62.20;;;;;;5051474;28;20083;-86
2022/07/04 10:22:49;;;;;;;3.33;1.50;;;26.60;63.50;;;;;;5052879;28;20036;-86
2022/07/04 10:25:15;;;;;;;1.45;1.35;;;26.60;63.70;;;;;;5051519;28;20033;-86
2022/07/04 10:27:41;;;;;;;2.03;1.45;;;26.60;63.10;;;;;;5036299;28;20059;-88
2022/07/04 10:30:13;;;;;;;3.35;1.50;;;26.80;63.70;;;;;;5052324;28;20040;-87
2022/07/04 10:32:42;;;;;;;1.13;1.10;;;26.80;58.70;;;;;;5016848;28;20044;-87
2022/07/04 10:35:11;;;;;;;1.20;1.15;;;26.70;58.50;;;;;;5027549;28;20127;-88
2022/07/04 10:38:00;;;;;;;3.28;1.38;;;26.60;57.10;;;;;;5032558;28;20128;-87
2022/07/04 10:40:42;;;;;;;1.23;1.13;;;26.60;58.90;;;;;;5030352;28;20021;-87
2022/07/04 10:43:31;;;;;;;3.00;1.40;;;26.70;61.10;;;;;;5039682;28;20467;-87
2022/07/04 10:46:19;;;;;;;1.58;1.17;;;26.60;56.60;;;;;;5042587;28;20086;-87
2022/07/04 10:49:06;;;;;;;2.08;1.30;;;26.40;57.70;;;;;;5051359;28;20036;-87
2022/07/04 10:51:38;;;;;;;3.55;1.80;;;26.30;61.90;;;;;;5039970;28;20059;-88
2022/07/04 10:54:20;;;;;;;2.30;1.90;;;26.40;60.80;;;;;;5067796;28;20503;-89
2022/07/04 10:56:56;;;;;;;1.50;1.40;;;26.40;57.50;;;;;;5038109;28;20144;-87
2022/07/04 10:59:27;;;;;;;2.25;1.77;;;26.50;61.50;;;;;;5043706;28;20055;-86
2022/07/04 11:02:11;;;;;;;1.83;1.70;;;26.60;61.10;;;;;;5038425;28;20029;-87
2022/07/04 11:05:10;;;;;;;1.63;1.23;;;26.70;60.30;;;;;;5072770;28;20052;-87
2022/07/04 11:07:36;;;;;;;1.20;1.20;;;26.80;60.10;;;;;;5047160;28;20044;-85
2022/07/04 11:10:11;;;;;;;1.67;1.30;;;26.80;59.60;;;;;;5050153;28;20041;-85
2022/07/04 11:12:55;;;;;;;1.33;1.23;;;26.80;60.10;;;;;;5069676;28;20029;-86
2022/07/04 11:15:27;;;;;;;0.88;0.88;;;26.90;59.50;;;;;;5034576;28;20145;-88
2022/07/04 11:18:00;;;;;;;1.20;1.10;;;26.90;56.60;;;;;;5053213;28;20020;-85
2022/07/04 11:20:29;;;;;;;1.27;1.17;;;27.00;59.80;;;;;;5037390;28;20410;-86
2022/07/04 11:23:09;;;;;;;2.45;1.08;;;27.00;58.90;;;;;;5036230;28;20043;-86
2022/07/04 11:25:36;;;;;;;1.45;1.30;;;27.10;59.40;;;;;;5036040;28;20024;-86
2022/07/04 11:28:22;;;;;;;1.45;1.00;;;27.10;57.80;;;;;;5015814;28;20036;-88
2022/07/04 11:30:49;;;;;;;1.30;0.98;;;27.20;56.80;;;;;;5022698;28;20086;-85
2022/07/04 11:33:20;;;;;;;1.15;1.15;;;27.40;57.70;;;;;;5043957;28;20028;-87
2022/07/04 11:36:05;;;;;;;0.90;0.90;;;27.50;59.50;;;;;;5035606;28;20037;-87
2022/07/04 11:39:03;;;;;;;1.25;1.00;;;27.70;58.90;;;;;;5049796;28;20025;-88
2022/07/04 11:47:21;;;;;;;1.83;1.10;;;28.40;55.50;;;;;;5056941;28;20130;-88
2022/07/04 11:49:51;;;;;;;1.40;1.30;;;28.50;57.50;;;;;;5050509;28;20048;-88
2022/07/04 11:52:27;;;;;;;1.38;1.27;;;28.60;56.30;;;;;;5047910;28;20041;-87
2022/07/04 11:54:54;;;;;;;1.33;1.00;;;28.60;54.10;;;;;;5025291;28;20040;-88
2022/07/04 11:57:28;;;;;;;1.25;1.10;;;28.50;54.40;;;;;;5065849;28;20108;-86
2022/07/04 11:59:58;;;;;;;1.63;1.20;;;28.40;56.50;;;;;;5049263;28;20043;-88
2022/07/04 12:02:26;;;;;;;5.78;1.50;;;28.50;54.70;;;;;;5056859;28;20154;-86
2022/07/04 12:04:52;;;;;;;1.10;1.10;;;28.60;55.90;;;;;;5065451;28;20036;-88
2022/07/04 12:07:22;;;;;;;1.73;1.20;;;28.80;55.60;;;;;;5068483;28;20044;-86
2022/07/04 12:09:48;;;;;;;1.67;1.20;;;29.00;56.30;;;;;;5049292;28;20033;-86
2022/07/04 12:12:17;;;;;;;1.25;1.10;;;29.20;55.80;;;;;;5055659;28;20047;-88
2022/07/04 12:15:06;;;;;;;1.92;1.40;;;29.20;52.40;;;;;;5039925;28;20086;-86
2022/07/04 12:17:32;;;;;;;1.00;1.00;;;29.30;53.20;;;;;;5034874;28;20031;-87
2022/07/04 12:20:01;;;;;;;2.45;2.25;;;29.40;54.30;;;;;;5047434;28;20108;-84
2022/07/04 12:22:32;;;;;;;0.90;0.90;;;29.40;51.30;;;;;;5029079;28;20060;-88
2022/07/04 12:24:58;;;;;;;1.27;1.17;;;29.50;53.40;;;;;;5053962;28;20041;-85
2022/07/04 12:27:25;;;;;;;1.20;1.10;;;29.60;53.00;;;;;;5047676;28;20120;-86
2022/07/04 12:29:53;;;;;;;1.38;1.02;;;29.70;50.40;;;;;;5025417;28;20087;-86
2022/07/04 12:32:19;;;;;;;3.28;1.02;;;29.90;52.70;;;;;;5033640;28;20479;-85
2022/07/04 12:34:45;;;;;;;1.90;1.42;;;30.10;52.00;;;;;;5030138;28;20029;-86
2022/07/04 12:37:13;;;;;;;1.50;1.40;;;30.30;49.00;;;;;;5026232;28;20519;-86
2022/07/04 12:39:43;;;;;;;1.13;1.13;;;30.50;50.70;;;;;;5045632;28;20052;-86
2022/07/04 12:42:19;;;;;;;1.20;1.20;;;30.60;50.70;;;;;;5051839;28;20063;-85
2022/07/04 12:44:49;;;;;;;2.22;1.20;;;30.70;50.00;;;;;;5069993;28;20068;-86
2022/07/04 12:47:16;;;;;;;2.05;1.33;;;30.90;50.00;;;;;;5013638;28;20039;-86
2022/07/04 12:49:44;;;;;;;2.28;1.23;;;31.10;49.80;;;;;;5029147;28;20024;-86
2022/07/04 12:52:16;;;;;;;1.38;0.90;;;31.40;49.80;;;;;;5031918;28;20588;-88
2022/07/04 12:54:44;;;;;;;1.27;1.17;;;31.40;47.40;;;;;;4998518;28;20032;-87
2022/07/04 12:57:15;;;;;;;1.13;1.10;;;31.40;49.10;;;;;;5068324;28;20067;-86
2022/07/04 12:59:41;;;;;;;1.08;0.98;;;31.60;49.30;;;;;;5050052;28;20043;-86
2022/07/04 13:02:09;;;;;;;1.10;1.00;;;31.70;44.40;;;;;;5043493;28;20044;-88
2022/07/04 13:04:36;;;;;;;1.17;1.08;;;31.80;47.40;;;;;;5031015;28;20039;-88
2022/07/04 13:07:22;;;;;;;3.25;1.10;;;31.70;44.20;;;;;;5038823;28;20574;-88
2022/07/04 13:09:48;;;;;;;1.98;1.13;;;31.80;46.50;;;;;;5032858;28;20086;-87
2022/07/04 13:12:27;;;;;;;1.45;1.20;;;31.80;47.70;;;;;;5033403;28;20044;-87